sensor_id;sensor_type;location;lat;lon;timestamp;P1;durP1;ratioP1;P2;durP2;ratioP2
68176;SDS011;56478;50.982;7.032;2024-02-26T00:02:16;1.50;;;1.40;;
68176;SDS011;56478;50.982;7.032;2024-02-26T00:04:41;1.60;;;1.50;;
68176;SDS011;56478;50.982;7.032;2024-02-26T00:07:07;1.60;;;1.50;;
68176;SDS011;56478;50.982;7.032;2024-02-26T00:09:33;3.03;;;1.58;;
68176;SDS011;56478;50.982;7.032;2024-02-26T00:12:03;1.97;;;1.77;;
68176;SDS011;56478;50.982;7.032;2024-02-26T00:14:30;1.50;;;1.40;;
68176;SDS011;56478;50.982;7.032;2024-02-26T00:16:55;1.70;;;1.60;;
68176;SDS011;56478;50.982;7.032;2024-02-26T00:19:24;2.13;;;1.60;;
68176;SDS011;56478;50.982;7.032;2024-02-26T00:21:50;2.00;;;1.80;;
68176;SDS011;56478;50.982;7.032;2024-02-26T00:24:15;1.60;;;1.50;;
68176;SDS011;56478;50.982;7.032;2024-02-26T00:26:41;2.05;;;1.63;;
68176;SDS011;56478;50.982;7.032;2024-02-26T00:29:06;1.50;;;1.40;;
68176;SDS011;56478;50.982;7.032;2024-02-26T00:31:32;1.52;;;1.50;;
68176;SDS011;56478;50.982;7.032;2024-02-26T00:33:57;1.60;;;1.50;;
68176;SDS011;56478;50.982;7.032;2024-02-26T00:36:23;1.98;;;1.50;;
68176;SDS011;56478;50.982;7.032;2024-02-26T00:38:49;1.63;;;1.27;;
68176;SDS011;56478;50.982;7.032;2024-02-26T00:41:18;1.75;;;1.30;;
68176;SDS011;56478;50.982;7.032;2024-02-26T00:43:44;1.30;;;1.30;;
68176;SDS011;56478;50.982;7.032;2024-02-26T00:46:09;2.88;;;1.40;;
68176;SDS011;56478;50.982;7.032;2024-02-26T00:48:35;1.48;;;1.38;;
68176;SDS011;56478;50.982;7.032;2024-02-26T00:51:01;1.20;;;1.20;;
68176;SDS011;56478;50.982;7.032;2024-02-26T00:53:26;1.38;;;1.38;;
68176;SDS011;56478;50.982;7.032;2024-02-26T00:55:53;1.50;;;1.40;;
68176;SDS011;56478;50.982;7.032;2024-02-26T00:58:19;1.42;;;1.33;;
68176;SDS011;56478;50.982;7.032;2024-02-26T01:00:45;1.38;;;1.30;;
68176;SDS011;56478;50.982;7.032;2024-02-26T01:03:10;1.50;;;1.40;;
68176;SDS011;56478;50.982;7.032;2024-02-26T01:05:36;1.52;;;1.42;;
68176;SDS011;56478;50.982;7.032;2024-02-26T01:08:03;1.23;;;1.13;;
68176;SDS011;56478;50.982;7.032;2024-02-26T01:10:29;1.48;;;1.30;;
68176;SDS011;56478;50.982;7.032;2024-02-26T01:12:55;1.27;;;1.25;;
68176;SDS011;56478;50.982;7.032;2024-02-26T01:15:21;1.42;;;1.33;;
68176;SDS011;56478;50.982;7.032;2024-02-26T01:17:49;2.38;;;1.50;;
68176;SDS011;56478;50.982;7.032;2024-02-26T01:20:16;1.40;;;1.30;;
68176;SDS011;56478;50.982;7.032;2024-02-26T01:22:43;1.23;;;1.23;;
68176;SDS011;56478;50.982;7.032;2024-02-26T01:25:09;1.17;;;1.15;;
68176;SDS011;56478;50.982;7.032;2024-02-26T01:27:35;1.20;;;1.10;;
68176;SDS011;56478;50.982;7.032;2024-02-26T01:30:06;1.27;;;1.20;;
68176;SDS011;56478;50.982;7.032;2024-02-26T01:32:32;1.30;;;1.25;;
68176;SDS011;56478;50.982;7.032;2024-02-26T01:34:58;1.27;;;1.20;;
68176;SDS011;56478;50.982;7.032;2024-02-26T01:37:23;1.30;;;1.17;;
68176;SDS011;56478;50.982;7.032;2024-02-26T01:39:49;1.30;;;1.20;;
68176;SDS011;56478;50.982;7.032;2024-02-26T01:42:15;1.42;;;1.20;;
68176;SDS011;56478;50.982;7.032;2024-02-26T01:44:40;1.40;;;1.33;;
68176;SDS011;56478;50.982;7.032;2024-02-26T01:47:07;1.75;;;1.30;;
68176;SDS011;56478;50.982;7.032;2024-02-26T01:49:36;1.20;;;1.10;;
68176;SDS011;56478;50.982;7.032;2024-02-26T01:52:04;1.75;;;1.45;;
68176;SDS011;56478;50.982;7.032;2024-02-26T01:54:31;1.20;;;1.20;;
68176;SDS011;56478;50.982;7.032;2024-02-26T01:56:58;2.55;;;1.77;;
68176;SDS011;56478;50.982;7.032;2024-02-26T01:59:23;2.13;;;1.50;;
68176;SDS011;56478;50.982;7.032;2024-02-26T02:01:52;1.73;;;1.58;;
68176;SDS011;56478;50.982;7.032;2024-02-26T02:04:21;1.90;;;1.80;;
68176;SDS011;56478;50.982;7.032;2024-02-26T02:06:48;1.80;;;1.70;;
68176;SDS011;56478;50.982;7.032;2024-02-26T02:09:14;1.73;;;1.63;;
68176;SDS011;56478;50.982;7.032;2024-02-26T02:11:40;1.95;;;1.55;;
68176;SDS011;56478;50.982;7.032;2024-02-26T02:14:06;1.98;;;1.88;;
68176;SDS011;56478;50.982;7.032;2024-02-26T02:16:32;1.60;;;1.50;;
68176;SDS011;56478;50.982;7.032;2024-02-26T02:19:00;1.73;;;1.63;;
68176;SDS011;56478;50.982;7.032;2024-02-26T02:21:26;2.20;;;1.80;;
68176;SDS011;56478;50.982;7.032;2024-02-26T02:23:51;1.75;;;1.65;;
68176;SDS011;56478;50.982;7.032;2024-02-26T02:26:17;1.88;;;1.67;;
68176;SDS011;56478;50.982;7.032;2024-02-26T02:28:43;2.67;;;1.60;;
68176;SDS011;56478;50.982;7.032;2024-02-26T02:31:10;1.80;;;1.50;;
68176;SDS011;56478;50.982;7.032;2024-02-26T02:33:36;1.80;;;1.70;;
68176;SDS011;56478;50.982;7.032;2024-02-26T02:36:02;1.60;;;1.50;;
68176;SDS011;56478;50.982;7.032;2024-02-26T02:38:28;1.40;;;1.30;;
68176;SDS011;56478;50.982;7.032;2024-02-26T02:40:55;1.55;;;1.45;;
68176;SDS011;56478;50.982;7.032;2024-02-26T02:43:20;2.83;;;1.70;;
68176;SDS011;56478;50.982;7.032;2024-02-26T02:45:46;1.80;;;1.70;;
68176;SDS011;56478;50.982;7.032;2024-02-26T02:48:12;1.70;;;1.60;;
68176;SDS011;56478;50.982;7.032;2024-02-26T02:50:37;1.65;;;1.55;;
68176;SDS011;56478;50.982;7.032;2024-02-26T02:53:03;1.77;;;1.60;;
68176;SDS011;56478;50.982;7.032;2024-02-26T02:55:29;1.75;;;1.65;;
68176;SDS011;56478;50.982;7.032;2024-02-26T02:57:55;1.45;;;1.45;;
68176;SDS011;56478;50.982;7.032;2024-02-26T03:00:21;1.80;;;1.70;;
68176;SDS011;56478;50.982;7.032;2024-02-26T03:02:49;1.73;;;1.63;;
68176;SDS011;56478;50.982;7.032;2024-02-26T03:05:15;1.55;;;1.55;;
68176;SDS011;56478;50.982;7.032;2024-02-26T03:07:41;2.63;;;1.60;;
68176;SDS011;56478;50.982;7.032;2024-02-26T03:10:06;1.75;;;1.65;;
68176;SDS011;56478;50.982;7.032;2024-02-26T03:12:33;1.83;;;1.35;;
68176;SDS011;56478;50.982;7.032;2024-02-26T03:14:59;2.03;;;1.50;;
68176;SDS011;56478;50.982;7.032;2024-02-26T03:17:28;1.50;;;1.40;;
68176;SDS011;56478;50.982;7.032;2024-02-26T03:19:53;1.60;;;1.50;;
68176;SDS011;56478;50.982;7.032;2024-02-26T03:22:19;1.30;;;1.30;;
68176;SDS011;56478;50.982;7.032;2024-02-26T03:24:45;1.48;;;1.38;;
68176;SDS011;56478;50.982;7.032;2024-02-26T03:27:11;1.60;;;1.50;;
68176;SDS011;56478;50.982;7.032;2024-02-26T03:29:37;1.48;;;1.38;;
68176;SDS011;56478;50.982;7.032;2024-02-26T03:32:03;1.50;;;1.35;;
68176;SDS011;56478;50.982;7.032;2024-02-26T03:34:29;1.40;;;1.30;;
68176;SDS011;56478;50.982;7.032;2024-02-26T03:36:56;3.90;;;1.70;;
68176;SDS011;56478;50.982;7.032;2024-02-26T03:39:22;1.50;;;1.40;;
68176;SDS011;56478;50.982;7.032;2024-02-26T03:41:48;1.50;;;1.40;;
68176;SDS011;56478;50.982;7.032;2024-02-26T03:44:13;1.70;;;1.60;;
68176;SDS011;56478;50.982;7.032;2024-02-26T03:46:40;1.55;;;1.40;;
68176;SDS011;56478;50.982;7.032;2024-02-26T03:49:08;1.40;;;1.30;;
68176;SDS011;56478;50.982;7.032;2024-02-26T03:51:33;2.97;;;1.50;;
68176;SDS011;56478;50.982;7.032;2024-02-26T03:53:59;2.17;;;1.60;;
68176;SDS011;56478;50.982;7.032;2024-02-26T03:56:26;1.60;;;1.50;;
68176;SDS011;56478;50.982;7.032;2024-02-26T03:58:52;1.98;;;1.38;;
68176;SDS011;56478;50.982;7.032;2024-02-26T04:01:18;1.85;;;1.65;;
68176;SDS011;56478;50.982;7.032;2024-02-26T04:03:43;1.30;;;1.30;;
68176;SDS011;56478;50.982;7.032;2024-02-26T04:06:09;1.52;;;1.42;;
68176;SDS011;56478;50.982;7.032;2024-02-26T04:08:36;1.55;;;1.50;;
68176;SDS011;56478;50.982;7.032;2024-02-26T04:11:02;1.88;;;1.50;;
68176;SDS011;56478;50.982;7.032;2024-02-26T04:13:35;1.60;;;1.50;;
68176;SDS011;56478;50.982;7.032;2024-02-26T04:16:03;1.70;;;1.60;;
68176;SDS011;56478;50.982;7.032;2024-02-26T04:18:32;2.97;;;1.73;;
68176;SDS011;56478;50.982;7.032;2024-02-26T04:20:58;1.77;;;1.67;;
68176;SDS011;56478;50.982;7.032;2024-02-26T04:23:24;1.98;;;1.70;;
68176;SDS011;56478;50.982;7.032;2024-02-26T04:25:50;4.95;;;1.77;;
68176;SDS011;56478;50.982;7.032;2024-02-26T04:28:18;1.70;;;1.60;;
68176;SDS011;56478;50.982;7.032;2024-02-26T04:30:46;1.80;;;1.70;;
68176;SDS011;56478;50.982;7.032;2024-02-26T04:33:13;1.63;;;1.52;;
68176;SDS011;56478;50.982;7.032;2024-02-26T04:35:39;1.83;;;1.40;;
68176;SDS011;56478;50.982;7.032;2024-02-26T04:38:04;1.50;;;1.40;;
68176;SDS011;56478;50.982;7.032;2024-02-26T04:40:30;1.38;;;1.38;;
68176;SDS011;56478;50.982;7.032;2024-02-26T04:42:56;1.60;;;1.50;;
68176;SDS011;56478;50.982;7.032;2024-02-26T04:45:22;2.95;;;1.60;;
68176;SDS011;56478;50.982;7.032;2024-02-26T04:47:48;1.48;;;1.38;;
68176;SDS011;56478;50.982;7.032;2024-02-26T04:50:13;1.45;;;1.35;;
68176;SDS011;56478;50.982;7.032;2024-02-26T04:52:39;5.07;;;1.60;;
68176;SDS011;56478;50.982;7.032;2024-02-26T04:55:05;1.48;;;1.38;;
68176;SDS011;56478;50.982;7.032;2024-02-26T04:57:30;1.35;;;1.35;;
68176;SDS011;56478;50.982;7.032;2024-02-26T04:59:56;3.05;;;1.50;;
68176;SDS011;56478;50.982;7.032;2024-02-26T05:02:22;1.50;;;1.40;;
68176;SDS011;56478;50.982;7.032;2024-02-26T05:04:47;2.75;;;1.40;;
68176;SDS011;56478;50.982;7.032;2024-02-26T05:07:13;1.38;;;1.35;;
68176;SDS011;56478;50.982;7.032;2024-02-26T05:09:39;1.40;;;1.30;;
68176;SDS011;56478;50.982;7.032;2024-02-26T05:12:07;2.35;;;1.48;;
68176;SDS011;56478;50.982;7.032;2024-02-26T05:14:32;1.60;;;1.50;;
68176;SDS011;56478;50.982;7.032;2024-02-26T05:16:58;1.70;;;1.60;;
68176;SDS011;56478;50.982;7.032;2024-02-26T05:19:24;1.73;;;1.63;;
68176;SDS011;56478;50.982;7.032;2024-02-26T05:21:49;2.75;;;1.70;;
68176;SDS011;56478;50.982;7.032;2024-02-26T05:24:15;1.80;;;1.70;;
68176;SDS011;56478;50.982;7.032;2024-02-26T05:26:43;2.13;;;2.00;;
68176;SDS011;56478;50.982;7.032;2024-02-26T05:29:11;2.17;;;1.98;;
68176;SDS011;56478;50.982;7.032;2024-02-26T05:31:36;2.70;;;2.00;;
68176;SDS011;56478;50.982;7.032;2024-02-26T05:34:02;2.10;;;1.90;;
68176;SDS011;56478;50.982;7.032;2024-02-26T05:36:27;2.33;;;2.13;;
68176;SDS011;56478;50.982;7.032;2024-02-26T05:38:58;2.40;;;1.77;;
68176;SDS011;56478;50.982;7.032;2024-02-26T05:41:25;1.90;;;1.80;;
68176;SDS011;56478;50.982;7.032;2024-02-26T05:43:54;1.90;;;1.80;;
68176;SDS011;56478;50.982;7.032;2024-02-26T05:46:26;2.25;;;1.85;;
68176;SDS011;56478;50.982;7.032;2024-02-26T05:48:52;5.93;;;2.22;;
68176;SDS011;56478;50.982;7.032;2024-02-26T05:51:18;2.65;;;2.42;;
68176;SDS011;56478;50.982;7.032;2024-02-26T05:53:44;2.30;;;2.20;;
68176;SDS011;56478;50.982;7.032;2024-02-26T05:56:09;2.55;;;2.20;;
68176;SDS011;56478;50.982;7.032;2024-02-26T05:58:35;2.40;;;2.30;;
68176;SDS011;56478;50.982;7.032;2024-02-26T06:01:01;3.17;;;2.40;;
68176;SDS011;56478;50.982;7.032;2024-02-26T06:03:26;2.42;;;2.22;;
68176;SDS011;56478;50.982;7.032;2024-02-26T06:05:52;2.30;;;2.10;;
68176;SDS011;56478;50.982;7.032;2024-02-26T06:08:18;2.30;;;2.10;;
68176;SDS011;56478;50.982;7.032;2024-02-26T06:10:43;2.00;;;1.88;;
68176;SDS011;56478;50.982;7.032;2024-02-26T06:13:09;2.30;;;2.10;;
68176;SDS011;56478;50.982;7.032;2024-02-26T06:15:35;2.05;;;1.92;;
68176;SDS011;56478;50.982;7.032;2024-02-26T06:18:00;2.28;;;1.90;;
68176;SDS011;56478;50.982;7.032;2024-02-26T06:20:26;2.13;;;2.03;;
68176;SDS011;56478;50.982;7.032;2024-02-26T06:22:52;2.00;;;1.90;;
68176;SDS011;56478;50.982;7.032;2024-02-26T06:25:17;2.10;;;1.90;;
68176;SDS011;56478;50.982;7.032;2024-02-26T06:27:43;2.20;;;2.00;;
68176;SDS011;56478;50.982;7.032;2024-02-26T06:30:09;2.10;;;1.90;;
68176;SDS011;56478;50.982;7.032;2024-02-26T06:32:36;2.80;;;1.88;;
68176;SDS011;56478;50.982;7.032;2024-02-26T06:35:05;1.98;;;1.80;;
68176;SDS011;56478;50.982;7.032;2024-02-26T06:37:33;2.20;;;1.63;;
68176;SDS011;56478;50.982;7.032;2024-02-26T06:39:59;2.03;;;1.80;;
68176;SDS011;56478;50.982;7.032;2024-02-26T06:42:25;2.10;;;2.00;;
68176;SDS011;56478;50.982;7.032;2024-02-26T06:44:51;1.90;;;1.80;;
68176;SDS011;56478;50.982;7.032;2024-02-26T06:47:16;2.35;;;2.10;;
68176;SDS011;56478;50.982;7.032;2024-02-26T06:49:42;2.20;;;1.95;;
68176;SDS011;56478;50.982;7.032;2024-02-26T06:52:08;2.35;;;2.15;;
68176;SDS011;56478;50.982;7.032;2024-02-26T06:54:34;2.10;;;2.00;;
68176;SDS011;56478;50.982;7.032;2024-02-26T06:56:59;2.08;;;1.98;;
68176;SDS011;56478;50.982;7.032;2024-02-26T06:59:25;2.83;;;2.00;;
68176;SDS011;56478;50.982;7.032;2024-02-26T07:01:51;1.77;;;1.67;;
68176;SDS011;56478;50.982;7.032;2024-02-26T07:04:16;3.50;;;1.95;;
68176;SDS011;56478;50.982;7.032;2024-02-26T07:06:42;1.90;;;1.80;;
68176;SDS011;56478;50.982;7.032;2024-02-26T07:09:09;2.85;;;2.13;;
68176;SDS011;56478;50.982;7.032;2024-02-26T07:11:34;2.05;;;1.90;;
68176;SDS011;56478;50.982;7.032;2024-02-26T07:14:00;1.85;;;1.75;;
68176;SDS011;56478;50.982;7.032;2024-02-26T07:16:26;2.17;;;2.03;;
68176;SDS011;56478;50.982;7.032;2024-02-26T07:18:52;2.30;;;2.00;;
68176;SDS011;56478;50.982;7.032;2024-02-26T07:21:17;2.03;;;1.92;;
68176;SDS011;56478;50.982;7.032;2024-02-26T07:23:43;2.13;;;1.92;;
68176;SDS011;56478;50.982;7.032;2024-02-26T07:26:08;2.45;;;1.90;;
68176;SDS011;56478;50.982;7.032;2024-02-26T07:28:36;2.97;;;1.90;;
68176;SDS011;56478;50.982;7.032;2024-02-26T07:31:02;2.45;;;2.10;;
68176;SDS011;56478;50.982;7.032;2024-02-26T07:33:28;1.98;;;1.88;;
68176;SDS011;56478;50.982;7.032;2024-02-26T07:35:54;2.97;;;1.90;;
68176;SDS011;56478;50.982;7.032;2024-02-26T07:38:19;2.10;;;2.00;;
68176;SDS011;56478;50.982;7.032;2024-02-26T07:40:45;2.30;;;2.10;;
68176;SDS011;56478;50.982;7.032;2024-02-26T07:43:10;2.88;;;1.88;;
68176;SDS011;56478;50.982;7.032;2024-02-26T07:45:36;2.38;;;2.17;;
68176;SDS011;56478;50.982;7.032;2024-02-26T07:48:01;2.95;;;1.98;;
68176;SDS011;56478;50.982;7.032;2024-02-26T07:50:27;2.13;;;1.90;;
68176;SDS011;56478;50.982;7.032;2024-02-26T07:52:53;2.63;;;1.83;;
68176;SDS011;56478;50.982;7.032;2024-02-26T07:55:19;2.13;;;2.00;;
68176;SDS011;56478;50.982;7.032;2024-02-26T07:57:45;2.00;;;1.90;;
68176;SDS011;56478;50.982;7.032;2024-02-26T08:00:10;2.00;;;1.90;;
68176;SDS011;56478;50.982;7.032;2024-02-26T08:02:37;2.00;;;1.90;;
68176;SDS011;56478;50.982;7.032;2024-02-26T08:05:02;2.13;;;2.00;;
68176;SDS011;56478;50.982;7.032;2024-02-26T08:07:28;2.63;;;1.98;;
68176;SDS011;56478;50.982;7.032;2024-02-26T08:09:54;2.95;;;2.05;;
68176;SDS011;56478;50.982;7.032;2024-02-26T08:12:19;2.50;;;2.10;;
68176;SDS011;56478;50.982;7.032;2024-02-26T08:14:45;2.00;;;1.88;;
68176;SDS011;56478;50.982;7.032;2024-02-26T08:17:11;2.00;;;1.90;;
68176;SDS011;56478;50.982;7.032;2024-02-26T08:19:36;3.78;;;2.00;;
68176;SDS011;56478;50.982;7.032;2024-02-26T08:22:02;2.10;;;1.90;;
68176;SDS011;56478;50.982;7.032;2024-02-26T08:24:28;2.05;;;1.95;;
68176;SDS011;56478;50.982;7.032;2024-02-26T08:26:53;3.63;;;1.90;;
68176;SDS011;56478;50.982;7.032;2024-02-26T08:29:19;2.10;;;2.00;;
68176;SDS011;56478;50.982;7.032;2024-02-26T08:31:45;2.80;;;2.00;;
68176;SDS011;56478;50.982;7.032;2024-02-26T08:34:10;2.33;;;2.13;;
68176;SDS011;56478;50.982;7.032;2024-02-26T08:36:36;2.05;;;1.95;;
68176;SDS011;56478;50.982;7.032;2024-02-26T08:39:01;1.98;;;1.88;;
68176;SDS011;56478;50.982;7.032;2024-02-26T08:41:27;2.25;;;2.03;;
68176;SDS011;56478;50.982;7.032;2024-02-26T08:43:53;1.90;;;1.80;;
68176;SDS011;56478;50.982;7.032;2024-02-26T08:46:19;1.90;;;1.80;;
68176;SDS011;56478;50.982;7.032;2024-02-26T08:48:45;2.35;;;1.90;;
68176;SDS011;56478;50.982;7.032;2024-02-26T08:51:11;2.72;;;2.10;;
68176;SDS011;56478;50.982;7.032;2024-02-26T08:53:36;3.00;;;1.98;;
68176;SDS011;56478;50.982;7.032;2024-02-26T08:56:02;2.58;;;2.20;;
68176;SDS011;56478;50.982;7.032;2024-02-26T08:58:28;2.97;;;2.10;;
68176;SDS011;56478;50.982;7.032;2024-02-26T09:00:54;2.55;;;2.00;;
68176;SDS011;56478;50.982;7.032;2024-02-26T09:03:20;2.50;;;2.30;;
68176;SDS011;56478;50.982;7.032;2024-02-26T09:05:46;2.85;;;2.10;;
68176;SDS011;56478;50.982;7.032;2024-02-26T09:08:11;2.45;;;2.20;;
68176;SDS011;56478;50.982;7.032;2024-02-26T09:10:37;2.30;;;2.10;;
68176;SDS011;56478;50.982;7.032;2024-02-26T09:13:03;2.22;;;2.00;;
68176;SDS011;56478;50.982;7.032;2024-02-26T09:15:29;2.58;;;2.38;;
68176;SDS011;56478;50.982;7.032;2024-02-26T09:17:55;2.70;;;2.50;;
68176;SDS011;56478;50.982;7.032;2024-02-26T09:20:20;10.32;;;2.60;;
68176;SDS011;56478;50.982;7.032;2024-02-26T09:22:47;4.95;;;2.50;;
68176;SDS011;56478;50.982;7.032;2024-02-26T09:25:13;2.83;;;2.60;;
68176;SDS011;56478;50.982;7.032;2024-02-26T09:27:41;2.72;;;2.53;;
68176;SDS011;56478;50.982;7.032;2024-02-26T09:30:08;5.03;;;2.80;;
68176;SDS011;56478;50.982;7.032;2024-02-26T09:32:34;4.55;;;2.70;;
68176;SDS011;56478;50.982;7.032;2024-02-26T09:35:00;3.63;;;2.72;;
68176;SDS011;56478;50.982;7.032;2024-02-26T09:37:25;4.25;;;2.90;;
68176;SDS011;56478;50.982;7.032;2024-02-26T09:39:51;4.90;;;2.72;;
68176;SDS011;56478;50.982;7.032;2024-02-26T09:42:17;7.70;;;2.80;;
68176;SDS011;56478;50.982;7.032;2024-02-26T09:44:44;2.67;;;2.47;;
68176;SDS011;56478;50.982;7.032;2024-02-26T09:47:10;2.45;;;2.25;;
68176;SDS011;56478;50.982;7.032;2024-02-26T09:49:38;3.10;;;2.47;;
68176;SDS011;56478;50.982;7.032;2024-02-26T09:52:04;3.00;;;2.80;;
68176;SDS011;56478;50.982;7.032;2024-02-26T09:54:31;2.35;;;2.15;;
68176;SDS011;56478;50.982;7.032;2024-02-26T09:56:59;5.95;;;2.55;;
68176;SDS011;56478;50.982;7.032;2024-02-26T09:59:27;3.20;;;2.28;;
68176;SDS011;56478;50.982;7.032;2024-02-26T10:01:54;2.80;;;2.40;;
68176;SDS011;56478;50.982;7.032;2024-02-26T10:04:23;4.15;;;2.25;;
68176;SDS011;56478;50.982;7.032;2024-02-26T10:06:49;2.15;;;1.98;;
68176;SDS011;56478;50.982;7.032;2024-02-26T10:09:16;4.40;;;2.42;;
68176;SDS011;56478;50.982;7.032;2024-02-26T10:11:42;3.17;;;2.40;;
68176;SDS011;56478;50.982;7.032;2024-02-26T10:14:08;3.92;;;2.50;;
68176;SDS011;56478;50.982;7.032;2024-02-26T10:16:34;2.63;;;2.33;;
68176;SDS011;56478;50.982;7.032;2024-02-26T10:19:00;4.40;;;2.13;;
68176;SDS011;56478;50.982;7.032;2024-02-26T10:21:26;5.55;;;2.20;;
68176;SDS011;56478;50.982;7.032;2024-02-26T10:23:52;2.78;;;2.20;;
68176;SDS011;56478;50.982;7.032;2024-02-26T10:26:17;2.53;;;2.30;;
68176;SDS011;56478;50.982;7.032;2024-02-26T10:28:44;3.30;;;2.20;;
68176;SDS011;56478;50.982;7.032;2024-02-26T10:31:10;2.72;;;2.42;;
68176;SDS011;56478;50.982;7.032;2024-02-26T10:33:38;2.85;;;2.35;;
68176;SDS011;56478;50.982;7.032;2024-02-26T10:36:05;2.95;;;2.50;;
68176;SDS011;56478;50.982;7.032;2024-02-26T10:38:33;2.60;;;2.40;;
68176;SDS011;56478;50.982;7.032;2024-02-26T10:41:01;4.60;;;2.45;;
68176;SDS011;56478;50.982;7.032;2024-02-26T10:43:27;3.35;;;2.47;;
68176;SDS011;56478;50.982;7.032;2024-02-26T10:45:56;2.80;;;2.42;;
68176;SDS011;56478;50.982;7.032;2024-02-26T10:50:47;3.70;;;2.30;;
68176;SDS011;56478;50.982;7.032;2024-02-26T10:53:17;3.35;;;2.67;;
68176;SDS011;56478;50.982;7.032;2024-02-26T10:55:54;3.20;;;2.42;;
68176;SDS011;56478;50.982;7.032;2024-02-26T10:58:24;3.10;;;2.40;;
68176;SDS011;56478;50.982;7.032;2024-02-26T11:00:50;2.75;;;2.55;;
68176;SDS011;56478;50.982;7.032;2024-02-26T11:03:17;2.30;;;2.15;;
68176;SDS011;56478;50.982;7.032;2024-02-26T11:05:45;2.70;;;2.45;;
68176;SDS011;56478;50.982;7.032;2024-02-26T11:08:18;4.28;;;2.45;;
68176;SDS011;56478;50.982;7.032;2024-02-26T11:10:48;2.50;;;2.30;;
68176;SDS011;56478;50.982;7.032;2024-02-26T11:13:17;2.55;;;2.35;;
68176;SDS011;56478;50.982;7.032;2024-02-26T11:15:44;2.67;;;2.40;;
68176;SDS011;56478;50.982;7.032;2024-02-26T11:18:12;2.40;;;2.20;;
68176;SDS011;56478;50.982;7.032;2024-02-26T11:20:40;2.75;;;2.40;;
68176;SDS011;56478;50.982;7.032;2024-02-26T11:23:06;2.65;;;2.20;;
68176;SDS011;56478;50.982;7.032;2024-02-26T11:25:32;2.47;;;2.28;;
68176;SDS011;56478;50.982;7.032;2024-02-26T11:27:59;2.45;;;2.20;;
68176;SDS011;56478;50.982;7.032;2024-02-26T11:30:30;3.70;;;2.47;;
68176;SDS011;56478;50.982;7.032;2024-02-26T11:32:59;2.97;;;2.25;;
68176;SDS011;56478;50.982;7.032;2024-02-26T11:35:24;3.13;;;2.50;;
68176;SDS011;56478;50.982;7.032;2024-02-26T11:37:51;2.72;;;2.35;;
68176;SDS011;56478;50.982;7.032;2024-02-26T11:40:18;2.47;;;2.28;;
68176;SDS011;56478;50.982;7.032;2024-02-26T11:42:44;2.20;;;2.10;;
68176;SDS011;56478;50.982;7.032;2024-02-26T11:48:13;2.70;;;2.50;;
68176;SDS011;56478;50.982;7.032;2024-02-26T11:50:43;2.72;;;2.53;;
68176;SDS011;56478;50.982;7.032;2024-02-26T12:02:02;3.00;;;2.35;;
68176;SDS011;56478;50.982;7.032;2024-02-26T12:04:28;3.05;;;2.50;;
68176;SDS011;56478;50.982;7.032;2024-02-26T12:07:00;3.65;;;2.50;;
68176;SDS011;56478;50.982;7.032;2024-02-26T12:09:37;2.80;;;2.60;;
68176;SDS011;56478;50.982;7.032;2024-02-26T12:12:04;3.65;;;2.63;;
68176;SDS011;56478;50.982;7.032;2024-02-26T12:14:38;2.70;;;2.50;;
68176;SDS011;56478;50.982;7.032;2024-02-26T12:17:04;2.80;;;2.50;;
68176;SDS011;56478;50.982;7.032;2024-02-26T12:19:33;2.70;;;2.40;;
68176;SDS011;56478;50.982;7.032;2024-02-26T12:22:02;2.60;;;2.40;;
68176;SDS011;56478;50.982;7.032;2024-02-26T12:24:28;2.92;;;2.60;;
68176;SDS011;56478;50.982;7.032;2024-02-26T12:26:53;3.15;;;2.53;;
68176;SDS011;56478;50.982;7.032;2024-02-26T12:29:20;2.92;;;2.50;;
68176;SDS011;56478;50.982;7.032;2024-02-26T12:31:45;3.63;;;2.50;;
68176;SDS011;56478;50.982;7.032;2024-02-26T12:34:12;4.35;;;2.80;;
68176;SDS011;56478;50.982;7.032;2024-02-26T12:36:38;2.70;;;2.50;;
68176;SDS011;56478;50.982;7.032;2024-02-26T12:39:05;2.70;;;2.50;;
68176;SDS011;56478;50.982;7.032;2024-02-26T12:41:32;3.45;;;2.80;;
68176;SDS011;56478;50.982;7.032;2024-02-26T12:43:59;3.13;;;2.83;;
68176;SDS011;56478;50.982;7.032;2024-02-26T12:46:25;3.10;;;2.80;;
68176;SDS011;56478;50.982;7.032;2024-02-26T12:48:50;3.45;;;2.95;;
68176;SDS011;56478;50.982;7.032;2024-02-26T12:51:16;3.83;;;3.45;;
68176;SDS011;56478;50.982;7.032;2024-02-26T12:53:43;6.55;;;3.78;;
68176;SDS011;56478;50.982;7.032;2024-02-26T12:56:11;3.65;;;3.35;;
68176;SDS011;56478;50.982;7.032;2024-02-26T12:58:39;6.18;;;3.15;;
68176;SDS011;56478;50.982;7.032;2024-02-26T13:01:06;3.13;;;2.83;;
68176;SDS011;56478;50.982;7.032;2024-02-26T13:03:33;3.40;;;3.10;;
68176;SDS011;56478;50.982;7.032;2024-02-26T13:06:00;5.75;;;3.03;;
68176;SDS011;56478;50.982;7.032;2024-02-26T13:08:27;3.78;;;3.40;;
68176;SDS011;56478;50.982;7.032;2024-02-26T13:10:53;3.22;;;2.92;;
68176;SDS011;56478;50.982;7.032;2024-02-26T13:13:19;4.25;;;2.80;;
68176;SDS011;56478;50.982;7.032;2024-02-26T13:15:47;3.20;;;2.90;;
68176;SDS011;56478;50.982;7.032;2024-02-26T13:18:14;3.25;;;2.88;;
68176;SDS011;56478;50.982;7.032;2024-02-26T13:20:41;3.38;;;3.08;;
68176;SDS011;56478;50.982;7.032;2024-02-26T13:23:07;5.65;;;3.75;;
68176;SDS011;56478;50.982;7.032;2024-02-26T13:25:36;4.50;;;3.95;;
68176;SDS011;56478;50.982;7.032;2024-02-26T13:28:25;4.05;;;3.40;;
68176;SDS011;56478;50.982;7.032;2024-02-26T13:30:56;3.42;;;3.08;;
68176;SDS011;56478;50.982;7.032;2024-02-26T13:33:22;3.53;;;3.22;;
68176;SDS011;56478;50.982;7.032;2024-02-26T13:35:51;4.07;;;3.40;;
68176;SDS011;56478;50.982;7.032;2024-02-26T13:38:18;3.97;;;3.35;;
68176;SDS011;56478;50.982;7.032;2024-02-26T13:40:43;5.15;;;3.20;;
68176;SDS011;56478;50.982;7.032;2024-02-26T13:43:09;3.72;;;3.30;;
68176;SDS011;56478;50.982;7.032;2024-02-26T13:45:35;3.90;;;3.50;;
68176;SDS011;56478;50.982;7.032;2024-02-26T13:48:05;3.67;;;3.30;;
68176;SDS011;56478;50.982;7.032;2024-02-26T13:50:32;4.53;;;3.75;;
68176;SDS011;56478;50.982;7.032;2024-02-26T13:52:58;3.90;;;3.42;;
68176;SDS011;56478;50.982;7.032;2024-02-26T13:55:27;4.47;;;3.30;;
68176;SDS011;56478;50.982;7.032;2024-02-26T13:57:57;3.90;;;3.50;;
68176;SDS011;56478;50.982;7.032;2024-02-26T14:00:23;4.22;;;3.45;;
68176;SDS011;56478;50.982;7.032;2024-02-26T14:02:49;6.65;;;3.55;;
68176;SDS011;56478;50.982;7.032;2024-02-26T14:05:15;5.38;;;3.60;;
68176;SDS011;56478;50.982;7.032;2024-02-26T14:07:41;4.80;;;3.47;;
68176;SDS011;56478;50.982;7.032;2024-02-26T14:10:07;3.58;;;3.28;;
68176;SDS011;56478;50.982;7.032;2024-02-26T14:12:35;3.83;;;3.53;;
68176;SDS011;56478;50.982;7.032;2024-02-26T14:15:00;4.65;;;3.60;;
68176;SDS011;56478;50.982;7.032;2024-02-26T14:17:29;5.47;;;3.88;;
68176;SDS011;56478;50.982;7.032;2024-02-26T14:19:55;5.30;;;4.18;;
68176;SDS011;56478;50.982;7.032;2024-02-26T14:22:21;7.72;;;4.00;;
68176;SDS011;56478;50.982;7.032;2024-02-26T14:24:46;4.55;;;4.03;;
68176;SDS011;56478;50.982;7.032;2024-02-26T14:27:12;4.80;;;4.28;;
68176;SDS011;56478;50.982;7.032;2024-02-26T14:29:43;5.13;;;4.28;;
68176;SDS011;56478;50.982;7.032;2024-02-26T14:32:09;6.68;;;5.00;;
68176;SDS011;56478;50.982;7.032;2024-02-26T14:34:35;5.93;;;4.70;;
68176;SDS011;56478;50.982;7.032;2024-02-26T14:37:01;10.20;;;5.10;;
68176;SDS011;56478;50.982;7.032;2024-02-26T14:39:27;5.63;;;5.00;;
68176;SDS011;56478;50.982;7.032;2024-02-26T14:41:54;5.60;;;4.97;;
68176;SDS011;56478;50.982;7.032;2024-02-26T14:44:20;5.88;;;5.25;;
68176;SDS011;56478;50.982;7.032;2024-02-26T14:46:45;6.38;;;5.18;;
68176;SDS011;56478;50.982;7.032;2024-02-26T14:49:11;6.97;;;5.25;;
68176;SDS011;56478;50.982;7.032;2024-02-26T14:51:37;6.38;;;4.93;;
68176;SDS011;56478;50.982;7.032;2024-02-26T14:54:03;6.00;;;5.28;;
68176;SDS011;56478;50.982;7.032;2024-02-26T14:56:29;7.68;;;5.57;;
68176;SDS011;56478;50.982;7.032;2024-02-26T14:58:54;6.82;;;5.53;;